createdAt,value
2023-01-07T00:01:28.245Z,9.40
2023-01-07T00:04:02.211Z,12.40
2023-01-07T00:06:36.928Z,11.50
2023-01-07T00:09:13.090Z,12.20
2023-01-07T00:11:47.720Z,12.30
2023-01-07T00:14:21.862Z,14.10
2023-01-07T00:16:54.872Z,12.80
2023-01-07T00:19:27.436Z,15.20
2023-01-07T00:21:59.996Z,17.20
2023-01-07T00:24:37.022Z,18.60
2023-01-07T00:27:09.557Z,20.00
2023-01-07T00:29:42.029Z,19.10
2023-01-07T00:32:14.577Z,19.10
2023-01-07T00:34:47.146Z,20.30
2023-01-07T00:37:39.469Z,19.70
2023-01-07T00:40:14.179Z,19.60
2023-01-07T00:42:56.988Z,19.40
2023-01-07T00:45:32.317Z,21.10
2023-01-07T00:48:05.731Z,21.10
2023-01-07T00:50:40.024Z,22.20
2023-01-07T00:53:13.297Z,21.00
2023-01-07T00:55:45.944Z,22.60
2023-01-07T00:58:23.766Z,21.10
2023-01-07T01:01:00.408Z,24.30
2023-01-07T01:03:34.390Z,20.60
2023-01-07T01:06:14.047Z,23.60
2023-01-07T01:08:48.236Z,20.90
2023-01-07T01:11:23.136Z,21.20
2023-01-07T01:13:55.773Z,20.10
2023-01-07T01:16:28.388Z,24.30
2023-01-07T01:19:02.299Z,21.80
2023-01-07T01:21:34.893Z,21.10
2023-01-07T01:24:07.945Z,20.80
2023-01-07T01:26:40.655Z,24.10
2023-01-07T01:29:13.243Z,20.30
2023-01-07T01:31:46.829Z,20.20
2023-01-07T01:34:19.912Z,22.00
2023-01-07T01:36:52.430Z,19.90
2023-01-07T01:39:25.775Z,23.90
2023-01-07T01:41:58.553Z,20.40
2023-01-07T01:44:38.668Z,20.90
2023-01-07T01:47:21.362Z,21.60
2023-01-07T01:50:00.690Z,20.50
2023-01-07T01:52:40.765Z,20.60
2023-01-07T01:55:18.503Z,20.70
2023-01-07T01:57:55.895Z,21.80
2023-01-07T02:00:29.452Z,23.70
2023-01-07T02:03:06.275Z,23.20
2023-01-07T02:05:42.284Z,20.40
2023-01-07T02:08:22.058Z,19.20
2023-01-07T02:11:10.314Z,22.40
2023-01-07T02:14:02.637Z,20.70
2023-01-07T02:16:45.356Z,22.40
2023-01-07T02:19:49.423Z,22.10
2023-01-07T02:22:40.040Z,21.70
2023-01-07T02:25:32.973Z,23.60
2023-01-07T02:28:25.566Z,21.70
2023-01-07T02:31:31.598Z,17.90
2023-01-07T02:34:11.116Z,18.30
2023-01-07T02:36:53.892Z,19.50
2023-01-07T02:39:38.301Z,17.70
2023-01-07T02:42:21.055Z,17.30
2023-01-07T02:45:03.879Z,18.50
2023-01-07T02:47:40.020Z,18.20
2023-01-07T02:50:13.170Z,17.50
2023-01-07T02:52:46.112Z,17.70
2023-01-07T02:55:23.421Z,20.90
2023-01-07T02:58:44.943Z,17.70
2023-01-07T03:01:39.197Z,18.70
2023-01-07T03:04:34.425Z,16.30
2023-01-07T03:07:26.021Z,17.20
2023-01-07T03:10:06.370Z,17.50
2023-01-07T03:12:44.844Z,17.50
2023-01-07T03:15:28.910Z,17.50
2023-01-07T03:18:07.229Z,16.70
2023-01-07T03:20:43.063Z,16.50
2023-01-07T03:23:19.893Z,16.20
2023-01-07T03:25:55.821Z,14.80
2023-01-07T03:28:35.315Z,15.00
2023-01-07T03:31:14.673Z,11.80
2023-01-07T03:33:53.930Z,11.00
2023-01-07T03:36:31.555Z,12.20
2023-01-07T03:39:06.083Z,13.80
2023-01-07T03:41:56.250Z,11.80
2023-01-07T03:44:29.139Z,12.00
2023-01-07T03:47:03.048Z,11.10
2023-01-07T03:49:38.573Z,11.90
2023-01-07T03:52:13.153Z,11.60
2023-01-07T03:54:45.719Z,11.70
2023-01-07T03:57:18.645Z,11.70
2023-01-07T03:59:51.417Z,11.90
2023-01-07T04:02:24.564Z,11.30
2023-01-07T04:04:58.444Z,14.30
2023-01-07T04:07:31.814Z,12.50
2023-01-07T04:10:04.509Z,13.00
2023-01-07T04:12:37.238Z,14.30
2023-01-07T04:15:12.918Z,14.20
2023-01-07T04:17:46.182Z,15.90
2023-01-07T04:20:19.100Z,14.50
2023-01-07T04:22:51.882Z,14.10
2023-01-07T04:25:24.419Z,13.60
2023-01-07T04:27:58.344Z,13.90
2023-01-07T04:30:30.914Z,13.60
2023-01-07T04:33:03.565Z,14.10
2023-01-07T04:35:36.447Z,14.00
2023-01-07T04:38:09.155Z,13.50
2023-01-07T04:40:43.275Z,14.90
2023-01-07T04:43:16.245Z,14.40
2023-01-07T04:45:48.884Z,15.80
2023-01-07T04:48:22.214Z,21.30
2023-01-07T04:50:56.610Z,20.30
2023-01-07T04:53:29.692Z,15.10
2023-01-07T04:56:02.397Z,16.80
2023-01-07T04:58:35.275Z,21.50
2023-01-07T05:01:08.988Z,22.70
2023-01-07T05:03:43.592Z,21.70
2023-01-07T05:06:16.415Z,16.90
2023-01-07T05:08:48.965Z,14.80
2023-01-07T05:11:22.578Z,13.10
2023-01-07T05:14:00.714Z,12.00
2023-01-07T05:16:35.240Z,12.40
2023-01-07T05:19:11.416Z,17.20
2023-01-07T05:21:49.573Z,21.60
2023-01-07T05:24:22.553Z,18.90
2023-01-07T05:26:59.513Z,20.80
2023-01-07T05:29:32.386Z,19.40
2023-01-07T05:32:05.495Z,16.60
2023-01-07T05:34:38.333Z,17.20
2023-01-07T05:37:11.287Z,17.90
2023-01-07T05:39:50.916Z,15.00
2023-01-07T05:42:24.889Z,16.30
2023-01-07T05:44:59.817Z,17.80
2023-01-07T05:47:32.573Z,18.50
2023-01-07T05:50:06.824Z,17.30
2023-01-07T05:52:39.328Z,17.10
2023-01-07T05:55:12.971Z,17.00
2023-01-07T05:57:45.584Z,16.50
2023-01-07T06:00:19.878Z,15.30
2023-01-07T06:02:52.397Z,14.20
2023-01-07T06:05:25.117Z,14.10
2023-01-07T06:07:59.831Z,14.10
2023-01-07T06:10:32.422Z,15.10
2023-01-07T06:13:04.968Z,15.60
2023-01-07T06:15:37.514Z,17.90
2023-01-07T06:18:10.518Z,19.80
2023-01-07T06:20:43.154Z,20.80
2023-01-07T06:23:15.937Z,16.00
2023-01-07T06:25:48.459Z,14.90
2023-01-07T06:28:21.588Z,15.40
2023-01-07T06:30:55.654Z,15.80
2023-01-07T06:33:28.202Z,16.80
2023-01-07T06:36:01.565Z,16.70
2023-01-07T06:38:34.224Z,15.50
2023-01-07T06:41:08.268Z,16.70
2023-01-07T06:43:40.797Z,16.10
2023-01-07T06:46:13.740Z,16.10
2023-01-07T06:48:46.330Z,14.40
2023-01-07T06:51:21.678Z,15.00
2023-01-07T06:53:55.489Z,15.60
2023-01-07T06:56:28.164Z,16.60
2023-01-07T06:59:01.814Z,15.90
2023-01-07T07:01:34.818Z,16.20
2023-01-07T07:04:07.617Z,18.80
2023-01-07T07:06:40.228Z,19.80
2023-01-07T07:09:13.320Z,22.10
2023-01-07T07:11:46.076Z,22.50
2023-01-07T07:14:18.762Z,21.00
2023-01-07T07:16:51.610Z,21.70
2023-01-07T07:19:24.154Z,21.60
2023-01-07T07:21:57.275Z,22.30
2023-01-07T07:24:29.965Z,20.80
2023-01-07T07:27:02.506Z,19.10
2023-01-07T07:29:35.020Z,19.20
2023-01-07T07:32:08.869Z,17.90
2023-01-07T07:34:44.639Z,19.20
2023-01-07T07:37:17.586Z,19.00
2023-01-07T07:39:50.258Z,20.60
2023-01-07T07:42:22.712Z,17.90
2023-01-07T07:44:55.198Z,18.00
2023-01-07T07:47:28.847Z,18.90
2023-01-07T07:50:01.456Z,20.80
2023-01-07T07:52:33.989Z,18.00
2023-01-07T07:55:20.109Z,18.80
2023-01-07T07:57:59.471Z,18.40
2023-01-07T08:00:32.210Z,18.30
2023-01-07T08:03:05.424Z,22.80
2023-01-07T08:05:41.353Z,24.20
2023-01-07T08:08:15.024Z,21.20
2023-01-07T08:10:49.069Z,20.80
2023-01-07T08:13:22.439Z,22.30
2023-01-07T08:15:55.119Z,22.20
2023-01-07T08:18:28.044Z,26.30
2023-01-07T08:21:00.752Z,26.30
2023-01-07T08:23:34.871Z,35.20
2023-01-07T08:26:07.821Z,41.90
2023-01-07T08:28:41.351Z,36.80
2023-01-07T08:31:14.401Z,38.60
2023-01-07T08:33:47.193Z,43.30
2023-01-07T08:36:23.529Z,77.80
2023-01-07T08:38:57.395Z,82.00
2023-01-07T08:41:30.007Z,83.40
2023-01-07T08:44:02.608Z,101.90
2023-01-07T08:46:35.292Z,107.60
2023-01-07T08:49:08.870Z,89.10
2023-01-07T08:51:41.645Z,64.70
2023-01-07T08:54:14.387Z,69.80
2023-01-07T08:56:46.861Z,57.90
2023-01-07T08:59:19.489Z,57.20
2023-01-07T09:01:53.739Z,50.10
2023-01-07T09:04:26.437Z,43.10
2023-01-07T09:06:59.732Z,33.00
2023-01-07T09:09:32.643Z,41.10
2023-01-07T09:12:05.554Z,40.10
2023-01-07T09:14:39.477Z,35.50
2023-01-07T09:17:12.812Z,36.60
2023-01-07T09:19:45.468Z,33.40
2023-01-07T09:22:17.980Z,37.40
2023-01-07T09:24:50.953Z,39.80
2023-01-07T09:27:24.717Z,30.20
2023-01-07T09:29:58.812Z,32.90
2023-01-07T09:32:31.824Z,34.40
2023-01-07T09:35:04.573Z,35.10
2023-01-07T09:37:37.129Z,37.60
2023-01-07T09:40:18.356Z,41.30
2023-01-07T09:42:58.088Z,36.00
2023-01-07T09:45:35.953Z,38.00
2023-01-07T09:48:22.067Z,39.60
2023-01-07T09:51:01.245Z,38.20
2023-01-07T09:53:38.914Z,39.00
2023-01-07T09:56:21.104Z,36.60
2023-01-07T09:58:57.283Z,38.50
2023-01-07T10:01:38.539Z,31.80
2023-01-07T10:04:28.681Z,35.60
2023-01-07T10:07:11.288Z,38.00
2023-01-07T10:10:03.502Z,34.70
2023-01-07T10:12:44.407Z,33.30
2023-01-07T10:15:39.578Z,32.50
2023-01-07T10:18:34.376Z,27.40
2023-01-07T10:21:15.181Z,23.30
2023-01-07T10:23:51.167Z,26.00
2023-01-07T10:26:34.391Z,26.40
2023-01-07T10:29:13.376Z,23.60
2023-01-07T10:31:46.975Z,25.80
2023-01-07T10:34:24.720Z,26.40
2023-01-07T10:37:07.193Z,25.90
2023-01-07T10:39:52.548Z,22.90
2023-01-07T10:42:28.694Z,17.30
2023-01-07T10:45:31.922Z,21.70
2023-01-07T10:48:35.810Z,19.90
2023-01-07T10:51:20.648Z,24.40
2023-01-07T10:54:02.791Z,21.00
2023-01-07T10:56:37.779Z,21.40
2023-01-07T10:59:17.278Z,20.60
2023-01-07T11:04:25.539Z,20.40
2023-01-07T11:07:03.771Z,17.70
2023-01-07T11:09:40.920Z,17.20
2023-01-07T11:12:26.078Z,15.90
2023-01-07T11:15:01.106Z,17.10
2023-01-07T11:17:38.817Z,17.60
2023-01-07T11:20:13.070Z,17.80
2023-01-07T11:22:45.945Z,17.90
2023-01-07T11:25:35.235Z,18.40
2023-01-07T11:28:20.987Z,15.90
2023-01-07T11:31:02.392Z,14.40
2023-01-07T11:34:02.929Z,14.40
2023-01-07T11:36:46.206Z,14.90
2023-01-07T11:39:25.265Z,16.50
2023-01-07T11:42:21.256Z,17.20
2023-01-07T11:45:15.044Z,15.30
2023-01-07T11:47:57.293Z,19.90
2023-01-07T11:50:36.928Z,19.20
2023-01-07T11:53:29.646Z,18.80
2023-01-07T11:56:07.595Z,18.10
2023-01-07T11:58:44.412Z,18.80
2023-01-07T12:01:19.582Z,18.50
2023-01-07T12:06:52.819Z,22.40
2023-01-07T12:09:29.670Z,23.20
2023-01-07T12:12:31.773Z,26.90
2023-01-07T12:15:06.480Z,25.60
2023-01-07T12:17:39.585Z,22.80
2023-01-07T12:20:37.419Z,24.10
2023-01-07T12:25:59.278Z,21.90
2023-01-07T12:28:46.930Z,22.00
2023-01-07T12:31:29.900Z,21.20
2023-01-07T12:34:14.724Z,25.50
2023-01-07T12:36:53.990Z,24.10
2023-01-07T12:39:32.418Z,22.10
2023-01-07T12:42:15.147Z,24.00
2023-01-07T12:44:52.844Z,22.60
2023-01-07T12:47:35.177Z,19.70
2023-01-07T12:50:16.241Z,23.60
2023-01-07T12:52:53.725Z,23.50
2023-01-07T12:55:30.392Z,21.70
2023-01-07T12:58:12.349Z,23.40
2023-01-07T13:00:50.679Z,21.80
2023-01-07T13:03:44.510Z,21.00
2023-01-07T13:06:24.837Z,23.40
2023-01-07T13:09:03.765Z,22.60
2023-01-07T13:11:58.592Z,22.90
2023-01-07T13:14:35.516Z,23.40
2023-01-07T13:17:17.553Z,21.90
2023-01-07T13:19:50.371Z,21.40
2023-01-07T13:22:31.572Z,21.70
2023-01-07T13:25:15.475Z,21.90
2023-01-07T13:28:18.305Z,20.20
2023-01-07T13:31:05.463Z,21.60
2023-01-07T13:33:48.451Z,24.90
2023-01-07T13:36:31.860Z,23.40
2023-01-07T13:39:28.880Z,23.40
2023-01-07T13:42:18.104Z,25.40
2023-01-07T13:45:15.600Z,24.00
2023-01-07T13:47:53.397Z,24.70
2023-01-07T13:50:36.804Z,24.20
2023-01-07T13:53:31.965Z,24.10
2023-01-07T13:56:34.362Z,28.50
2023-01-07T13:59:28.427Z,27.30
2023-01-07T14:02:21.889Z,28.00
2023-01-07T14:05:08.083Z,26.20
2023-01-07T14:07:49.850Z,29.20
2023-01-07T14:10:30.542Z,25.10
2023-01-07T14:13:20.720Z,23.20
2023-01-07T14:16:11.109Z,24.10
2023-01-07T14:19:10.716Z,24.70
2023-01-07T14:22:07.323Z,25.90
2023-01-07T14:24:59.863Z,26.00
2023-01-07T14:27:51.361Z,28.30
2023-01-07T14:30:28.631Z,25.20
2023-01-07T14:33:04.431Z,29.20
2023-01-07T14:35:41.021Z,27.60
2023-01-07T14:38:48.880Z,26.00
2023-01-07T14:41:21.599Z,26.60
2023-01-07T14:44:27.192Z,25.40
2023-01-07T14:47:00.522Z,28.90
2023-01-07T14:50:03.947Z,27.00
2023-01-07T14:52:57.685Z,28.80
2023-01-07T14:56:21.222Z,30.00
2023-01-07T14:59:29.433Z,33.60
2023-01-07T15:02:37.303Z,33.00
2023-01-07T15:05:42.670Z,35.70
2023-01-07T15:08:37.821Z,37.00
2023-01-07T15:11:34.081Z,34.90
2023-01-07T15:14:36.065Z,31.00
2023-01-07T15:17:10.778Z,31.20
2023-01-07T15:19:44.450Z,29.80
2023-01-07T15:22:31.147Z,28.80
2023-01-07T15:25:11.864Z,31.30
2023-01-07T15:27:53.022Z,29.50
2023-01-07T15:30:39.119Z,33.30
2023-01-07T15:33:29.337Z,32.20
2023-01-07T15:36:04.523Z,35.40
2023-01-07T15:38:42.685Z,33.10
2023-01-07T15:41:30.717Z,37.40
2023-01-07T15:44:05.833Z,35.80
2023-01-07T15:46:42.593Z,49.00
2023-01-07T15:49:24.797Z,57.20
2023-01-07T15:51:58.962Z,67.70
2023-01-07T15:54:36.740Z,79.70
2023-01-07T15:57:15.928Z,103.90
2023-01-07T15:59:52.167Z,94.20
2023-01-07T16:02:27.951Z,79.60
2023-01-07T16:05:03.886Z,61.60
2023-01-07T16:07:41.754Z,85.20
2023-01-07T16:10:24.227Z,78.90
2023-01-07T16:12:58.995Z,81.60
2023-01-07T16:15:35.098Z,86.80
2023-01-07T16:18:20.213Z,92.90
2023-01-07T16:20:59.104Z,77.20
2023-01-07T16:23:33.516Z,97.40
2023-01-07T16:26:10.824Z,89.60
2023-01-07T16:28:47.905Z,78.00
2023-01-07T16:31:23.437Z,86.80
2023-01-07T16:33:58.581Z,78.40
2023-01-07T16:36:37.698Z,64.50
2023-01-07T16:39:22.122Z,69.60
2023-01-07T16:42:15.235Z,66.90
2023-01-07T16:45:07.990Z,67.20
2023-01-07T16:47:40.494Z,55.00
2023-01-07T16:50:37.227Z,69.70
2023-01-07T16:53:24.698Z,65.90
2023-01-07T16:56:12.917Z,56.80
2023-01-07T17:01:29.846Z,53.90
2023-01-07T17:04:08.675Z,49.50
2023-01-07T17:06:43.854Z,48.60
2023-01-07T17:09:25.995Z,47.50
2023-01-07T17:11:59.048Z,55.40
2023-01-07T17:14:50.270Z,50.90
2023-01-07T17:17:26.457Z,50.10
2023-01-07T17:20:19.025Z,50.70
2023-01-07T17:22:51.729Z,52.60
2023-01-07T17:25:29.554Z,53.40
2023-01-07T17:28:08.487Z,59.90
2023-01-07T17:30:44.945Z,59.90
2023-01-07T17:33:19.509Z,65.60
2023-01-07T17:35:54.314Z,71.50
2023-01-07T17:38:26.899Z,71.60
2023-01-07T17:40:59.581Z,75.30
2023-01-07T17:43:37.770Z,85.30
2023-01-07T17:46:13.219Z,84.60
2023-01-07T17:48:45.777Z,71.60
2023-01-07T17:51:18.470Z,81.00
2023-01-07T17:53:53.814Z,74.10
2023-01-07T17:56:26.817Z,65.70
2023-01-07T17:58:59.431Z,58.80
2023-01-07T18:01:34.043Z,56.80
2023-01-07T18:04:06.736Z,50.90
2023-01-07T18:06:43.864Z,52.30
2023-01-07T18:09:16.324Z,54.90
2023-01-07T18:12:06.523Z,51.10
2023-01-07T18:14:39.251Z,51.50
2023-01-07T18:17:15.335Z,46.70
2023-01-07T18:19:50.048Z,52.70
2023-01-07T18:22:23.903Z,47.70
2023-01-07T18:24:56.433Z,46.00
2023-01-07T18:27:29.071Z,46.10
2023-01-07T18:30:01.625Z,46.10
2023-01-07T18:32:34.561Z,43.70
2023-01-07T18:35:07.622Z,45.40
2023-01-07T18:37:40.410Z,46.20
2023-01-07T18:40:13.492Z,48.20
2023-01-07T18:42:48.359Z,57.50
2023-01-07T18:45:21.703Z,62.30
2023-01-07T18:47:55.230Z,45.10
2023-01-07T18:50:27.834Z,53.40
2023-01-07T18:53:00.579Z,52.20
2023-01-07T18:55:33.819Z,52.10
2023-01-07T18:58:08.853Z,50.90
2023-01-07T19:00:41.848Z,47.10
2023-01-07T19:03:15.005Z,47.70
2023-01-07T19:05:47.715Z,48.90
2023-01-07T19:08:20.418Z,42.50
2023-01-07T19:10:53.281Z,39.10
2023-01-07T19:13:26.124Z,38.50
2023-01-07T19:15:58.653Z,34.40
2023-01-07T19:18:31.276Z,36.20
2023-01-07T19:21:07.054Z,35.60
2023-01-07T19:23:39.678Z,33.80
2023-01-07T19:26:13.758Z,36.00
2023-01-07T19:28:46.427Z,35.70
2023-01-07T19:31:18.928Z,39.00
2023-01-07T19:33:52.173Z,44.30
2023-01-07T19:36:25.044Z,48.50
2023-01-07T19:38:58.428Z,38.70
2023-01-07T19:41:33.066Z,34.10
2023-01-07T19:44:06.751Z,34.20
2023-01-07T19:46:39.652Z,32.40
2023-01-07T19:49:13.568Z,31.50
2023-01-07T19:51:46.495Z,31.60
2023-01-07T19:54:20.153Z,29.00
2023-01-07T19:56:52.887Z,31.00
2023-01-07T19:59:31.355Z,29.90
2023-01-07T20:02:04.207Z,31.40
2023-01-07T20:04:42.873Z,29.30
2023-01-07T20:07:16.058Z,30.00
2023-01-07T20:09:49.255Z,32.20
2023-01-07T20:12:22.065Z,32.00
2023-01-07T20:14:55.071Z,34.30
2023-01-07T20:17:27.669Z,33.50
2023-01-07T20:20:02.264Z,36.50
2023-01-07T20:22:39.796Z,33.50
2023-01-07T20:25:13.652Z,33.30
2023-01-07T20:27:51.427Z,31.10
2023-01-07T20:30:23.996Z,78.30
2023-01-07T20:32:57.117Z,63.30
2023-01-07T20:35:29.961Z,112.20
2023-01-07T20:38:02.748Z,134.10
2023-01-07T20:40:38.866Z,84.40
2023-01-07T20:43:12.876Z,119.10
2023-01-07T20:45:47.697Z,102.10
2023-01-07T20:48:23.749Z,116.00
2023-01-07T20:50:56.712Z,65.10
2023-01-07T20:53:30.086Z,80.80
2023-01-07T20:56:03.748Z,87.90
2023-01-07T20:58:39.384Z,67.00
2023-01-07T21:01:15.372Z,68.70
2023-01-07T21:03:48.186Z,66.20
2023-01-07T21:06:21.999Z,70.60
2023-01-07T21:08:55.659Z,67.80
2023-01-07T21:11:31.229Z,69.30
2023-01-07T21:14:04.204Z,74.50
2023-01-07T21:16:37.480Z,60.60
2023-01-07T21:19:10.224Z,58.80
2023-01-07T21:21:43.237Z,47.00
2023-01-07T21:24:19.236Z,38.50
2023-01-07T21:26:53.035Z,47.20
2023-01-07T21:29:25.783Z,46.70
2023-01-07T21:32:04.273Z,48.60
2023-01-07T21:34:39.807Z,49.40
2023-01-07T21:37:13.243Z,43.40
2023-01-07T21:39:46.066Z,44.40
2023-01-07T21:42:18.884Z,50.60
2023-01-07T21:44:54.583Z,50.90
2023-01-07T21:47:31.101Z,53.20
2023-01-07T21:50:03.624Z,50.00
2023-01-07T21:52:37.148Z,51.90
2023-01-07T21:55:11.968Z,49.70
2023-01-07T21:57:44.784Z,46.90
2023-01-07T22:00:19.288Z,47.00
2023-01-07T22:02:51.786Z,48.20
2023-01-07T22:05:24.415Z,49.60
2023-01-07T22:07:57.152Z,52.80
2023-01-07T22:10:30.027Z,52.60
2023-01-07T22:13:02.575Z,44.80
2023-01-07T22:15:35.905Z,44.90
2023-01-07T22:18:08.808Z,41.50
2023-01-07T22:20:41.628Z,42.40
2023-01-07T22:23:18.199Z,39.50
2023-01-07T22:25:51.935Z,41.40
2023-01-07T22:28:26.069Z,40.30
2023-01-07T22:30:59.996Z,41.30
2023-01-07T22:33:32.562Z,39.20
2023-01-07T22:36:06.194Z,41.30
2023-01-07T22:38:39.732Z,33.60
2023-01-07T22:41:13.354Z,32.50
2023-01-07T22:43:46.312Z,33.50
2023-01-07T22:46:23.088Z,31.90
2023-01-07T22:48:56.129Z,29.50
2023-01-07T22:51:32.705Z,27.20
2023-01-07T22:54:05.992Z,26.80
2023-01-07T22:56:38.742Z,25.80
2023-01-07T22:59:11.268Z,25.90
2023-01-07T23:01:46.025Z,22.10
2023-01-07T23:04:18.749Z,22.30
2023-01-07T23:06:54.613Z,25.30
2023-01-07T23:09:27.147Z,25.80
2023-01-07T23:12:01.625Z,24.30
2023-01-07T23:14:34.467Z,23.30
2023-01-07T23:17:07.214Z,24.70
2023-01-07T23:19:39.891Z,27.80
2023-01-07T23:22:12.530Z,25.70
2023-01-07T23:24:47.041Z,26.30
2023-01-07T23:27:19.531Z,28.80
2023-01-07T23:29:52.037Z,27.20
2023-01-07T23:32:24.542Z,27.80
2023-01-07T23:34:56.989Z,27.40
2023-01-07T23:37:31.831Z,25.20
2023-01-07T23:40:04.462Z,22.30
2023-01-07T23:42:37.343Z,22.40
2023-01-07T23:45:13.221Z,22.30
2023-01-07T23:47:46.189Z,21.90
2023-01-07T23:50:19.000Z,20.90
2023-01-07T23:52:51.528Z,21.40
2023-01-07T23:55:24.090Z,20.90
2023-01-07T23:57:56.721Z,23.80
